sensor_id;sensor_type;location;lat;lon;timestamp;P1;durP1;ratioP1;P2;durP2;ratioP2
31095;SDS011;17749;51.962;8.560;2024-02-04T06:00:48;11.52;;;5.00;;
31095;SDS011;17749;51.962;8.560;2024-02-04T06:03:15;11.45;;;5.22;;
31095;SDS011;17749;51.962;8.560;2024-02-04T06:05:42;12.55;;;6.43;;
31095;SDS011;17749;51.962;8.560;2024-02-04T06:08:10;13.05;;;6.47;;
31095;SDS011;17749;51.962;8.560;2024-02-04T06:10:37;10.70;;;6.13;;
31095;SDS011;17749;51.962;8.560;2024-02-04T06:13:04;12.35;;;6.22;;
31095;SDS011;17749;51.962;8.560;2024-02-04T06:15:31;13.13;;;6.32;;
31095;SDS011;17749;51.962;8.560;2024-02-04T06:17:58;12.52;;;6.20;;
31095;SDS011;17749;51.962;8.560;2024-02-04T06:20:25;11.05;;;6.32;;
31095;SDS011;17749;51.962;8.560;2024-02-04T06:22:52;11.82;;;6.40;;
31095;SDS011;17749;51.962;8.560;2024-02-04T06:25:19;12.82;;;6.40;;
31095;SDS011;17749;51.962;8.560;2024-02-04T06:27:46;12.27;;;6.50;;
31095;SDS011;17749;51.962;8.560;2024-02-04T06:30:13;12.02;;;6.07;;
31095;SDS011;17749;51.962;8.560;2024-02-04T06:32:41;13.13;;;6.25;;
31095;SDS011;17749;51.962;8.560;2024-02-04T06:35:08;14.00;;;5.90;;
31095;SDS011;17749;51.962;8.560;2024-02-04T06:37:35;11.38;;;5.43;;
31095;SDS011;17749;51.962;8.560;2024-02-04T06:40:02;11.95;;;5.60;;
31095;SDS011;17749;51.962;8.560;2024-02-04T06:42:30;10.75;;;4.82;;
31095;SDS011;17749;51.962;8.560;2024-02-04T06:44:57;11.35;;;5.80;;
31095;SDS011;17749;51.962;8.560;2024-02-04T06:47:24;11.40;;;4.97;;
31095;SDS011;17749;51.962;8.560;2024-02-04T06:49:51;11.73;;;5.60;;
31095;SDS011;17749;51.962;8.560;2024-02-04T06:52:18;9.63;;;5.05;;
31095;SDS011;17749;51.962;8.560;2024-02-04T06:54:45;10.60;;;4.97;;
31095;SDS011;17749;51.962;8.560;2024-02-04T06:57:12;14.95;;;5.43;;
31095;SDS011;17749;51.962;8.560;2024-02-04T06:59:39;11.45;;;5.53;;
31095;SDS011;17749;51.962;8.560;2024-02-04T07:02:06;13.48;;;5.82;;
31095;SDS011;17749;51.962;8.560;2024-02-04T07:04:33;10.07;;;5.97;;
31095;SDS011;17749;51.962;8.560;2024-02-04T07:07:01;13.52;;;6.03;;
31095;SDS011;17749;51.962;8.560;2024-02-04T07:09:28;11.93;;;7.60;;
31095;SDS011;17749;51.962;8.560;2024-02-04T07:11:55;13.27;;;6.43;;
31095;SDS011;17749;51.962;8.560;2024-02-04T07:14:22;11.80;;;6.57;;
31095;SDS011;17749;51.962;8.560;2024-02-04T07:16:48;13.45;;;6.78;;
31095;SDS011;17749;51.962;8.560;2024-02-04T07:19:16;20.63;;;8.48;;
31095;SDS011;17749;51.962;8.560;2024-02-04T07:21:43;17.73;;;8.13;;
31095;SDS011;17749;51.962;8.560;2024-02-04T07:24:11;20.75;;;9.57;;
31095;SDS011;17749;51.962;8.560;2024-02-04T07:26:38;16.67;;;9.18;;
31095;SDS011;17749;51.962;8.560;2024-02-04T07:29:05;26.40;;;11.82;;
31095;SDS011;17749;51.962;8.560;2024-02-04T07:31:32;21.00;;;10.18;;
31095;SDS011;17749;51.962;8.560;2024-02-04T07:33:59;23.05;;;10.25;;
31095;SDS011;17749;51.962;8.560;2024-02-04T07:36:26;28.95;;;11.50;;
31095;SDS011;17749;51.962;8.560;2024-02-04T07:38:54;25.35;;;11.13;;
31095;SDS011;17749;51.962;8.560;2024-02-04T07:41:21;24.30;;;12.18;;
31095;SDS011;17749;51.962;8.560;2024-02-04T07:43:48;22.15;;;10.20;;
31095;SDS011;17749;51.962;8.560;2024-02-04T07:46:15;20.40;;;10.10;;
31095;SDS011;17749;51.962;8.560;2024-02-04T07:48:43;16.77;;;9.00;;
31095;SDS011;17749;51.962;8.560;2024-02-04T07:51:10;16.13;;;6.97;;
31095;SDS011;17749;51.962;8.560;2024-02-04T07:53:37;17.67;;;7.72;;
31095;SDS011;17749;51.962;8.560;2024-02-04T07:56:04;18.05;;;8.07;;
31095;SDS011;17749;51.962;8.560;2024-02-04T07:58:33;16.55;;;8.82;;
31095;SDS011;17749;51.962;8.560;2024-02-04T08:01:00;18.10;;;9.02;;
31095;SDS011;17749;51.962;8.560;2024-02-04T08:03:27;19.70;;;9.35;;
31095;SDS011;17749;51.962;8.560;2024-02-04T08:05:54;23.80;;;8.23;;
31095;SDS011;17749;51.962;8.560;2024-02-04T08:08:21;16.63;;;8.77;;
31095;SDS011;17749;51.962;8.560;2024-02-04T08:10:48;22.60;;;8.60;;
31095;SDS011;17749;51.962;8.560;2024-02-04T08:13:15;20.33;;;9.10;;
31095;SDS011;17749;51.962;8.560;2024-02-04T08:15:42;15.63;;;7.75;;
31095;SDS011;17749;51.962;8.560;2024-02-04T08:18:10;18.05;;;8.70;;
31095;SDS011;17749;51.962;8.560;2024-02-04T08:20:37;17.38;;;7.55;;
31095;SDS011;17749;51.962;8.560;2024-02-04T08:23:04;13.70;;;6.70;;
31095;SDS011;17749;51.962;8.560;2024-02-04T08:25:31;14.73;;;6.85;;
31095;SDS011;17749;51.962;8.560;2024-02-04T08:27:58;15.38;;;7.10;;
31095;SDS011;17749;51.962;8.560;2024-02-04T08:30:25;25.52;;;7.65;;
31095;SDS011;17749;51.962;8.560;2024-02-04T08:32:53;18.42;;;6.60;;
31095;SDS011;17749;51.962;8.560;2024-02-04T08:35:20;15.65;;;6.20;;
31095;SDS011;17749;51.962;8.560;2024-02-04T08:37:47;14.90;;;5.88;;
31095;SDS011;17749;51.962;8.560;2024-02-04T08:40:14;13.40;;;4.90;;
31095;SDS011;17749;51.962;8.560;2024-02-04T08:42:41;10.90;;;5.13;;
31095;SDS011;17749;51.962;8.560;2024-02-04T08:45:08;10.60;;;4.40;;
31095;SDS011;17749;51.962;8.560;2024-02-04T08:47:35;14.15;;;4.20;;
31095;SDS011;17749;51.962;8.560;2024-02-04T08:50:03;15.55;;;3.80;;
31095;SDS011;17749;51.962;8.560;2024-02-04T08:52:30;7.47;;;3.22;;
31095;SDS011;17749;51.962;8.560;2024-02-04T08:54:57;5.05;;;2.85;;
31095;SDS011;17749;51.962;8.560;2024-02-04T08:57:26;7.95;;;2.50;;
31095;SDS011;17749;51.962;8.560;2024-02-04T08:59:54;11.32;;;3.88;;
31095;SDS011;17749;51.962;8.560;2024-02-04T09:02:21;7.57;;;2.22;;
31095;SDS011;17749;51.962;8.560;2024-02-04T09:04:47;7.53;;;3.00;;
31095;SDS011;17749;51.962;8.560;2024-02-04T09:07:15;8.05;;;2.75;;
31095;SDS011;17749;51.962;8.560;2024-02-04T09:09:42;12.48;;;3.80;;
31095;SDS011;17749;51.962;8.560;2024-02-04T09:12:09;4.57;;;2.10;;
31095;SDS011;17749;51.962;8.560;2024-02-04T09:14:36;8.95;;;2.25;;
31095;SDS011;17749;51.962;8.560;2024-02-04T09:17:04;6.25;;;2.58;;
31095;SDS011;17749;51.962;8.560;2024-02-04T09:19:33;7.15;;;2.40;;
31095;SDS011;17749;51.962;8.560;2024-02-04T09:22:02;9.82;;;2.05;;
31095;SDS011;17749;51.962;8.560;2024-02-04T09:24:30;5.20;;;2.72;;
31095;SDS011;17749;51.962;8.560;2024-02-04T09:26:57;10.63;;;2.35;;
31095;SDS011;17749;51.962;8.560;2024-02-04T09:29:24;5.45;;;1.92;;
31095;SDS011;17749;51.962;8.560;2024-02-04T09:31:51;5.55;;;2.17;;
31095;SDS011;17749;51.962;8.560;2024-02-04T09:34:21;9.55;;;2.90;;
31095;SDS011;17749;51.962;8.560;2024-02-04T09:36:48;6.43;;;2.67;;
31095;SDS011;17749;51.962;8.560;2024-02-04T09:39:16;9.35;;;2.40;;
31095;SDS011;17749;51.962;8.560;2024-02-04T09:41:43;7.95;;;2.08;;
31095;SDS011;17749;51.962;8.560;2024-02-04T09:44:10;7.43;;;2.47;;
31095;SDS011;17749;51.962;8.560;2024-02-04T09:46:41;9.15;;;2.67;;
31095;SDS011;17749;51.962;8.560;2024-02-04T09:49:08;10.63;;;2.97;;
31095;SDS011;17749;51.962;8.560;2024-02-04T09:51:36;6.43;;;2.60;;
31095;SDS011;17749;51.962;8.560;2024-02-04T09:54:04;8.25;;;3.03;;
31095;SDS011;17749;51.962;8.560;2024-02-04T09:56:35;6.85;;;3.10;;
31095;SDS011;17749;51.962;8.560;2024-02-04T09:59:04;8.13;;;2.80;;
31095;SDS011;17749;51.962;8.560;2024-02-04T10:01:32;7.65;;;2.97;;
31095;SDS011;17749;51.962;8.560;2024-02-04T10:03:59;10.57;;;3.60;;
31095;SDS011;17749;51.962;8.560;2024-02-04T10:06:27;9.18;;;3.47;;
31095;SDS011;17749;51.962;8.560;2024-02-04T10:08:54;7.45;;;3.15;;
31095;SDS011;17749;51.962;8.560;2024-02-04T10:11:22;7.93;;;3.67;;
31095;SDS011;17749;51.962;8.560;2024-02-04T10:13:49;9.32;;;3.72;;
31095;SDS011;17749;51.962;8.560;2024-02-04T10:16:16;8.68;;;3.70;;
31095;SDS011;17749;51.962;8.560;2024-02-04T10:18:44;10.70;;;4.40;;
31095;SDS011;17749;51.962;8.560;2024-02-04T10:21:16;8.07;;;3.47;;
31095;SDS011;17749;51.962;8.560;2024-02-04T10:23:47;8.85;;;3.65;;
31095;SDS011;17749;51.962;8.560;2024-02-04T10:26:15;12.70;;;3.80;;
31095;SDS011;17749;51.962;8.560;2024-02-04T10:28:46;6.60;;;4.20;;
31095;SDS011;17749;51.962;8.560;2024-02-04T10:31:14;8.90;;;3.75;;
31095;SDS011;17749;51.962;8.560;2024-02-04T10:33:43;5.78;;;3.22;;
31095;SDS011;17749;51.962;8.560;2024-02-04T10:36:10;10.52;;;3.88;;
31095;SDS011;17749;51.962;8.560;2024-02-04T10:38:37;8.27;;;3.53;;
31095;SDS011;17749;51.962;8.560;2024-02-04T10:41:04;7.55;;;3.05;;
31095;SDS011;17749;51.962;8.560;2024-02-04T10:43:34;8.80;;;3.20;;
31095;SDS011;17749;51.962;8.560;2024-02-04T10:46:03;8.38;;;3.05;;
31095;SDS011;17749;51.962;8.560;2024-02-04T10:48:36;7.43;;;3.38;;
31095;SDS011;17749;51.962;8.560;2024-02-04T10:51:12;5.25;;;3.05;;
31095;SDS011;17749;51.962;8.560;2024-02-04T10:53:41;6.40;;;2.78;;
31095;SDS011;17749;51.962;8.560;2024-02-04T10:56:14;7.28;;;3.22;;
31095;SDS011;17749;51.962;8.560;2024-02-04T10:58:46;9.02;;;4.50;;
31095;SDS011;17749;51.962;8.560;2024-02-04T11:01:14;8.75;;;3.47;;
31095;SDS011;17749;51.962;8.560;2024-02-04T11:03:41;6.03;;;3.10;;
31095;SDS011;17749;51.962;8.560;2024-02-04T11:06:10;6.28;;;3.28;;
31095;SDS011;17749;51.962;8.560;2024-02-04T11:08:38;10.15;;;3.90;;
31095;SDS011;17749;51.962;8.560;2024-02-04T11:11:05;7.68;;;3.60;;
31095;SDS011;17749;51.962;8.560;2024-02-04T11:13:32;7.57;;;4.22;;
31095;SDS011;17749;51.962;8.560;2024-02-04T11:16:04;9.50;;;4.32;;
31095;SDS011;17749;51.962;8.560;2024-02-04T11:27:08;7.82;;;3.45;;
31095;SDS011;17749;51.962;8.560;2024-02-04T11:29:35;8.65;;;3.70;;
31095;SDS011;17749;51.962;8.560;2024-02-04T11:32:02;7.35;;;3.85;;
31095;SDS011;17749;51.962;8.560;2024-02-04T11:34:30;7.22;;;4.07;;
31095;SDS011;17749;51.962;8.560;2024-02-04T11:36:58;9.45;;;4.63;;
31095;SDS011;17749;51.962;8.560;2024-02-04T11:39:25;9.35;;;3.97;;
31095;SDS011;17749;51.962;8.560;2024-02-04T11:41:53;14.88;;;5.28;;
31095;SDS011;17749;51.962;8.560;2024-02-04T11:44:24;8.23;;;4.10;;
31095;SDS011;17749;51.962;8.560;2024-02-04T11:46:54;13.20;;;5.60;;
31095;SDS011;17749;51.962;8.560;2024-02-04T11:49:24;13.23;;;4.75;;
31095;SDS011;17749;51.962;8.560;2024-02-04T11:51:52;12.63;;;4.65;;
31095;SDS011;17749;51.962;8.560;2024-02-04T11:54:20;13.35;;;5.35;;
31095;SDS011;17749;51.962;8.560;2024-02-04T11:56:49;11.27;;;4.47;;
31095;SDS011;17749;51.962;8.560;2024-02-04T11:59:20;9.02;;;5.15;;
31095;SDS011;17749;51.962;8.560;2024-02-04T12:01:54;11.75;;;5.78;;
31095;SDS011;17749;51.962;8.560;2024-02-04T12:04:22;9.68;;;5.45;;
31095;SDS011;17749;51.962;8.560;2024-02-04T12:06:50;9.05;;;5.00;;
31095;SDS011;17749;51.962;8.560;2024-02-04T12:09:18;12.13;;;5.35;;
31095;SDS011;17749;51.962;8.560;2024-02-04T12:11:46;12.05;;;6.03;;
31095;SDS011;17749;51.962;8.560;2024-02-04T12:14:14;8.15;;;5.35;;
31095;SDS011;17749;51.962;8.560;2024-02-04T12:16:42;8.48;;;5.95;;
31095;SDS011;17749;51.962;8.560;2024-02-04T12:19:09;11.57;;;6.13;;
31095;SDS011;17749;51.962;8.560;2024-02-04T12:21:36;12.38;;;6.75;;
31095;SDS011;17749;51.962;8.560;2024-02-04T12:24:04;10.45;;;6.10;;
31095;SDS011;17749;51.962;8.560;2024-02-04T12:26:31;14.50;;;7.00;;
31095;SDS011;17749;51.962;8.560;2024-02-04T12:28:58;16.27;;;6.50;;
31095;SDS011;17749;51.962;8.560;2024-02-04T12:31:26;11.07;;;5.80;;
31095;SDS011;17749;51.962;8.560;2024-02-04T12:33:56;13.30;;;6.03;;
31095;SDS011;17749;51.962;8.560;2024-02-04T12:36:30;14.30;;;7.97;;
31095;SDS011;17749;51.962;8.560;2024-02-04T12:38:59;14.85;;;6.75;;
31095;SDS011;17749;51.962;8.560;2024-02-04T12:41:27;11.32;;;6.50;;
31095;SDS011;17749;51.962;8.560;2024-02-04T12:43:57;12.75;;;6.85;;
31095;SDS011;17749;51.962;8.560;2024-02-04T12:46:29;12.85;;;6.70;;
31095;SDS011;17749;51.962;8.560;2024-02-04T12:48:57;19.63;;;10.07;;
31095;SDS011;17749;51.962;8.560;2024-02-04T12:51:31;14.70;;;6.88;;
31095;SDS011;17749;51.962;8.560;2024-02-04T12:54:07;14.88;;;6.97;;
31095;SDS011;17749;51.962;8.560;2024-02-04T12:59:30;10.27;;;6.05;;
31095;SDS011;17749;51.962;8.560;2024-02-04T13:02:00;11.48;;;6.07;;
31095;SDS011;17749;51.962;8.560;2024-02-04T13:04:38;10.82;;;7.32;;
31095;SDS011;17749;51.962;8.560;2024-02-04T13:07:07;9.85;;;5.82;;
31095;SDS011;17749;51.962;8.560;2024-02-04T13:09:43;12.50;;;6.32;;
31095;SDS011;17749;51.962;8.560;2024-02-04T13:12:11;10.88;;;5.65;;
31095;SDS011;17749;51.962;8.560;2024-02-04T13:14:41;9.93;;;6.00;;
31095;SDS011;17749;51.962;8.560;2024-02-04T13:17:08;9.07;;;5.65;;
31095;SDS011;17749;51.962;8.560;2024-02-04T13:19:37;9.43;;;5.53;;
31095;SDS011;17749;51.962;8.560;2024-02-04T13:22:05;12.27;;;5.97;;
31095;SDS011;17749;51.962;8.560;2024-02-04T13:24:33;12.63;;;6.78;;
31095;SDS011;17749;51.962;8.560;2024-02-04T13:27:00;9.30;;;5.43;;
31095;SDS011;17749;51.962;8.560;2024-02-04T13:29:29;10.98;;;5.53;;
31095;SDS011;17749;51.962;8.560;2024-02-04T13:31:56;9.82;;;6.18;;
31095;SDS011;17749;51.962;8.560;2024-02-04T13:34:24;10.98;;;5.15;;
31095;SDS011;17749;51.962;8.560;2024-02-04T13:36:50;11.85;;;5.45;;
31095;SDS011;17749;51.962;8.560;2024-02-04T13:39:18;20.73;;;8.38;;
31095;SDS011;17749;51.962;8.560;2024-02-04T13:41:45;6.07;;;3.97;;
31095;SDS011;17749;51.962;8.560;2024-02-04T13:44:12;7.68;;;4.60;;
31095;SDS011;17749;51.962;8.560;2024-02-04T13:46:39;5.28;;;3.47;;
31095;SDS011;17749;51.962;8.560;2024-02-04T13:49:09;6.50;;;4.15;;
31095;SDS011;17749;51.962;8.560;2024-02-04T13:51:39;5.38;;;3.38;;
31095;SDS011;17749;51.962;8.560;2024-02-04T13:54:11;5.88;;;3.00;;
31095;SDS011;17749;51.962;8.560;2024-02-04T13:56:44;6.03;;;2.85;;
31095;SDS011;17749;51.962;8.560;2024-02-04T13:59:12;5.60;;;3.00;;
31095;SDS011;17749;51.962;8.560;2024-02-04T14:01:39;5.43;;;2.80;;
31095;SDS011;17749;51.962;8.560;2024-02-04T14:04:06;5.03;;;3.38;;
31095;SDS011;17749;51.962;8.560;2024-02-04T14:06:34;7.68;;;2.83;;
31095;SDS011;17749;51.962;8.560;2024-02-04T14:09:02;3.85;;;2.80;;
31095;SDS011;17749;51.962;8.560;2024-02-04T14:11:30;3.58;;;2.85;;
31095;SDS011;17749;51.962;8.560;2024-02-04T14:13:57;5.15;;;3.13;;
31095;SDS011;17749;51.962;8.560;2024-02-04T14:16:24;4.28;;;2.80;;
31095;SDS011;17749;51.962;8.560;2024-02-04T14:18:52;5.53;;;4.60;;
31095;SDS011;17749;51.962;8.560;2024-02-04T14:21:22;5.35;;;3.47;;
31095;SDS011;17749;51.962;8.560;2024-02-04T14:23:49;4.28;;;3.28;;
31095;SDS011;17749;51.962;8.560;2024-02-04T14:26:17;7.30;;;3.80;;
31095;SDS011;17749;51.962;8.560;2024-02-04T14:28:44;5.18;;;3.38;;
31095;SDS011;17749;51.962;8.560;2024-02-04T14:31:11;7.90;;;4.63;;
31095;SDS011;17749;51.962;8.560;2024-02-04T14:33:38;9.77;;;5.45;;
31095;SDS011;17749;51.962;8.560;2024-02-04T14:36:06;15.20;;;7.90;;
31095;SDS011;17749;51.962;8.560;2024-02-04T14:38:34;9.10;;;5.00;;
31095;SDS011;17749;51.962;8.560;2024-02-04T14:41:04;10.35;;;5.40;;
31095;SDS011;17749;51.962;8.560;2024-02-04T14:43:32;7.38;;;4.50;;
31095;SDS011;17749;51.962;8.560;2024-02-04T14:46:00;7.03;;;3.20;;
31095;SDS011;17749;51.962;8.560;2024-02-04T14:48:27;10.68;;;6.10;;
31095;SDS011;17749;51.962;8.560;2024-02-04T14:50:54;8.23;;;4.35;;
31095;SDS011;17749;51.962;8.560;2024-02-04T14:53:24;6.85;;;4.80;;
31095;SDS011;17749;51.962;8.560;2024-02-04T14:55:51;7.88;;;4.40;;
31095;SDS011;17749;51.962;8.560;2024-02-04T14:58:18;5.05;;;3.55;;
31095;SDS011;17749;51.962;8.560;2024-02-04T15:00:46;7.18;;;3.90;;
31095;SDS011;17749;51.962;8.560;2024-02-04T15:03:14;7.05;;;4.15;;
31095;SDS011;17749;51.962;8.560;2024-02-04T15:05:42;7.53;;;4.18;;
31095;SDS011;17749;51.962;8.560;2024-02-04T15:08:09;7.43;;;4.00;;
31095;SDS011;17749;51.962;8.560;2024-02-04T15:10:36;7.18;;;4.20;;
31095;SDS011;17749;51.962;8.560;2024-02-04T15:13:04;6.25;;;3.72;;
31095;SDS011;17749;51.962;8.560;2024-02-04T15:15:31;8.65;;;4.95;;
31095;SDS011;17749;51.962;8.560;2024-02-04T15:17:58;9.73;;;4.63;;
31095;SDS011;17749;51.962;8.560;2024-02-04T15:20:26;5.90;;;4.07;;
31095;SDS011;17749;51.962;8.560;2024-02-04T15:22:53;6.60;;;4.70;;
31095;SDS011;17749;51.962;8.560;2024-02-04T15:25:23;7.03;;;4.40;;
31095;SDS011;17749;51.962;8.560;2024-02-04T15:27:50;8.65;;;4.05;;
31095;SDS011;17749;51.962;8.560;2024-02-04T15:30:19;7.47;;;4.05;;
31095;SDS011;17749;51.962;8.560;2024-02-04T15:32:46;6.40;;;4.00;;
31095;SDS011;17749;51.962;8.560;2024-02-04T15:35:14;7.60;;;4.93;;
31095;SDS011;17749;51.962;8.560;2024-02-04T15:37:41;9.45;;;5.45;;
31095;SDS011;17749;51.962;8.560;2024-02-04T15:40:08;10.18;;;4.68;;
31095;SDS011;17749;51.962;8.560;2024-02-04T15:42:35;8.85;;;5.35;;
31095;SDS011;17749;51.962;8.560;2024-02-04T15:45:03;6.75;;;5.00;;
31095;SDS011;17749;51.962;8.560;2024-02-04T15:47:30;9.82;;;5.30;;
31095;SDS011;17749;51.962;8.560;2024-02-04T15:50:01;9.75;;;5.05;;
31095;SDS011;17749;51.962;8.560;2024-02-04T15:52:30;7.30;;;4.18;;
31095;SDS011;17749;51.962;8.560;2024-02-04T15:54:59;6.60;;;4.13;;
31095;SDS011;17749;51.962;8.560;2024-02-04T15:57:27;5.93;;;3.80;;
31095;SDS011;17749;51.962;8.560;2024-02-04T16:00:01;6.95;;;4.10;;
31095;SDS011;17749;51.962;8.560;2024-02-04T16:02:37;9.38;;;4.97;;
31095;SDS011;17749;51.962;8.560;2024-02-04T16:05:04;6.93;;;3.47;;
31095;SDS011;17749;51.962;8.560;2024-02-04T16:07:33;5.88;;;3.95;;
31095;SDS011;17749;51.962;8.560;2024-02-04T16:10:00;5.28;;;3.45;;
31095;SDS011;17749;51.962;8.560;2024-02-04T16:12:28;7.93;;;4.38;;
31095;SDS011;17749;51.962;8.560;2024-02-04T16:14:55;7.38;;;3.67;;
31095;SDS011;17749;51.962;8.560;2024-02-04T16:17:25;3.45;;;2.47;;
31095;SDS011;17749;51.962;8.560;2024-02-04T16:19:53;6.80;;;3.47;;
31095;SDS011;17749;51.962;8.560;2024-02-04T16:22:21;6.75;;;3.55;;
31095;SDS011;17749;51.962;8.560;2024-02-04T16:24:48;5.90;;;3.53;;
31095;SDS011;17749;51.962;8.560;2024-02-04T16:27:15;4.57;;;3.05;;
31095;SDS011;17749;51.962;8.560;2024-02-04T16:29:42;7.70;;;4.25;;
31095;SDS011;17749;51.962;8.560;2024-02-04T16:32:09;5.28;;;3.63;;
31095;SDS011;17749;51.962;8.560;2024-02-04T16:34:41;5.40;;;3.60;;
31095;SDS011;17749;51.962;8.560;2024-02-04T16:37:08;3.97;;;2.70;;
31095;SDS011;17749;51.962;8.560;2024-02-04T16:39:38;4.57;;;2.83;;
31095;SDS011;17749;51.962;8.560;2024-02-04T16:42:07;10.15;;;6.00;;
31095;SDS011;17749;51.962;8.560;2024-02-04T16:44:35;3.95;;;2.72;;
31095;SDS011;17749;51.962;8.560;2024-02-04T16:47:02;4.65;;;3.17;;
31095;SDS011;17749;51.962;8.560;2024-02-04T16:49:29;6.05;;;3.10;;
31095;SDS011;17749;51.962;8.560;2024-02-04T16:51:57;4.32;;;3.28;;
31095;SDS011;17749;51.962;8.560;2024-02-04T16:54:24;5.15;;;2.78;;
31095;SDS011;17749;51.962;8.560;2024-02-04T16:56:55;8.68;;;4.22;;
31095;SDS011;17749;51.962;8.560;2024-02-04T16:59:23;4.57;;;3.08;;
31095;SDS011;17749;51.962;8.560;2024-02-04T17:01:51;4.25;;;2.95;;
31095;SDS011;17749;51.962;8.560;2024-02-04T17:04:20;5.32;;;3.55;;
31095;SDS011;17749;51.962;8.560;2024-02-04T17:06:49;5.15;;;3.40;;
31095;SDS011;17749;51.962;8.560;2024-02-04T17:09:17;5.72;;;3.40;;
31095;SDS011;17749;51.962;8.560;2024-02-04T17:11:46;6.50;;;3.90;;
31095;SDS011;17749;51.962;8.560;2024-02-04T17:14:13;7.72;;;3.67;;
31095;SDS011;17749;51.962;8.560;2024-02-04T17:19:34;7.65;;;4.10;;
31095;SDS011;17749;51.962;8.560;2024-02-04T17:22:15;6.43;;;4.30;;
31095;SDS011;17749;51.962;8.560;2024-02-04T17:24:50;9.15;;;4.88;;
31095;SDS011;17749;51.962;8.560;2024-02-04T17:27:21;8.50;;;5.72;;
31095;SDS011;17749;51.962;8.560;2024-02-04T17:29:51;10.93;;;7.95;;
31095;SDS011;17749;51.962;8.560;2024-02-04T17:32:22;12.23;;;5.85;;
31095;SDS011;17749;51.962;8.560;2024-02-04T17:34:52;14.23;;;7.80;;
31095;SDS011;17749;51.962;8.560;2024-02-04T17:37:25;17.83;;;11.32;;
31095;SDS011;17749;51.962;8.560;2024-02-04T17:39:52;13.60;;;10.15;;
31095;SDS011;17749;51.962;8.560;2024-02-04T17:42:19;11.73;;;8.13;;
31095;SDS011;17749;51.962;8.560;2024-02-04T17:44:46;15.82;;;9.38;;
31095;SDS011;17749;51.962;8.560;2024-02-04T17:47:13;13.77;;;10.27;;
31095;SDS011;17749;51.962;8.560;2024-02-04T17:49:40;18.75;;;11.38;;
31095;SDS011;17749;51.962;8.560;2024-02-04T17:52:08;12.38;;;7.45;;
31095;SDS011;17749;51.962;8.560;2024-02-04T17:54:35;10.45;;;6.85;;
31095;SDS011;17749;51.962;8.560;2024-02-04T17:57:03;15.50;;;9.77;;
31095;SDS011;17749;51.962;8.560;2024-02-04T17:59:32;10.50;;;6.53;;
31095;SDS011;17749;51.962;8.560;2024-02-04T18:02:00;10.18;;;5.47;;
31095;SDS011;17749;51.962;8.560;2024-02-04T18:04:27;11.93;;;6.45;;
31095;SDS011;17749;51.962;8.560;2024-02-04T18:06:55;8.63;;;5.15;;
31095;SDS011;17749;51.962;8.560;2024-02-04T18:09:22;10.68;;;6.68;;
31095;SDS011;17749;51.962;8.560;2024-02-04T18:11:49;13.88;;;10.00;;
31095;SDS011;17749;51.962;8.560;2024-02-04T18:14:16;6.90;;;4.05;;
31095;SDS011;17749;51.962;8.560;2024-02-04T18:16:43;10.07;;;5.72;;
31095;SDS011;17749;51.962;8.560;2024-02-04T18:19:10;8.57;;;5.22;;
31095;SDS011;17749;51.962;8.560;2024-02-04T18:21:37;9.40;;;4.90;;
31095;SDS011;17749;51.962;8.560;2024-02-04T18:24:05;7.10;;;4.72;;
31095;SDS011;17749;51.962;8.560;2024-02-04T18:26:33;7.28;;;4.78;;
31095;SDS011;17749;51.962;8.560;2024-02-04T18:29:01;7.38;;;4.70;;
31095;SDS011;17749;51.962;8.560;2024-02-04T18:31:29;8.07;;;4.63;;
31095;SDS011;17749;51.962;8.560;2024-02-04T18:33:58;8.27;;;5.17;;
31095;SDS011;17749;51.962;8.560;2024-02-04T18:36:26;8.75;;;5.43;;
31095;SDS011;17749;51.962;8.560;2024-02-04T18:38:56;11.75;;;4.80;;
31095;SDS011;17749;51.962;8.560;2024-02-04T18:41:24;9.73;;;5.88;;
31095;SDS011;17749;51.962;8.560;2024-02-04T18:43:51;11.40;;;6.90;;
31095;SDS011;17749;51.962;8.560;2024-02-04T18:46:22;11.48;;;6.32;;
31095;SDS011;17749;51.962;8.560;2024-02-04T18:48:49;11.10;;;6.38;;
31095;SDS011;17749;51.962;8.560;2024-02-04T18:51:17;12.43;;;7.47;;
31095;SDS011;17749;51.962;8.560;2024-02-04T18:53:45;12.45;;;7.00;;
31095;SDS011;17749;51.962;8.560;2024-02-04T18:56:12;15.13;;;8.13;;
31095;SDS011;17749;51.962;8.560;2024-02-04T18:58:43;16.63;;;7.85;;
31095;SDS011;17749;51.962;8.560;2024-02-04T19:01:17;13.55;;;7.68;;
31095;SDS011;17749;51.962;8.560;2024-02-04T19:03:46;17.80;;;9.23;;
31095;SDS011;17749;51.962;8.560;2024-02-04T19:06:25;17.83;;;9.43;;
31095;SDS011;17749;51.962;8.560;2024-02-04T19:08:53;17.02;;;9.70;;
31095;SDS011;17749;51.962;8.560;2024-02-04T19:11:20;17.35;;;8.57;;
31095;SDS011;17749;51.962;8.560;2024-02-04T19:13:48;17.60;;;9.75;;
31095;SDS011;17749;51.962;8.560;2024-02-04T19:16:23;17.42;;;9.18;;
31095;SDS011;17749;51.962;8.560;2024-02-04T19:18:50;17.10;;;8.63;;
31095;SDS011;17749;51.962;8.560;2024-02-04T19:21:19;15.52;;;9.43;;
31095;SDS011;17749;51.962;8.560;2024-02-04T19:23:46;18.10;;;9.05;;
31095;SDS011;17749;51.962;8.560;2024-02-04T19:26:13;17.52;;;9.50;;
31095;SDS011;17749;51.962;8.560;2024-02-04T19:28:41;17.60;;;9.93;;
31095;SDS011;17749;51.962;8.560;2024-02-04T19:31:08;19.23;;;10.63;;
31095;SDS011;17749;51.962;8.560;2024-02-04T19:33:37;19.55;;;9.70;;
31095;SDS011;17749;51.962;8.560;2024-02-04T19:36:04;18.80;;;10.82;;
31095;SDS011;17749;51.962;8.560;2024-02-04T19:38:32;21.00;;;11.40;;
31095;SDS011;17749;51.962;8.560;2024-02-04T19:40:59;22.42;;;11.68;;
31095;SDS011;17749;51.962;8.560;2024-02-04T19:43:26;22.58;;;11.70;;
31095;SDS011;17749;51.962;8.560;2024-02-04T19:45:57;21.88;;;10.75;;
31095;SDS011;17749;51.962;8.560;2024-02-04T19:48:25;21.00;;;10.60;;
31095;SDS011;17749;51.962;8.560;2024-02-04T19:50:52;18.88;;;11.48;;
31095;SDS011;17749;51.962;8.560;2024-02-04T19:53:20;20.73;;;10.40;;
31095;SDS011;17749;51.962;8.560;2024-02-04T19:55:47;18.48;;;10.18;;
31095;SDS011;17749;51.962;8.560;2024-02-04T19:58:14;17.85;;;9.73;;
31095;SDS011;17749;51.962;8.560;2024-02-04T20:00:41;19.08;;;10.70;;
31095;SDS011;17749;51.962;8.560;2024-02-04T20:05:39;16.77;;;9.32;;
31095;SDS011;17749;51.962;8.560;2024-02-04T20:08:06;15.50;;;9.05;;
31095;SDS011;17749;51.962;8.560;2024-02-04T20:10:35;41.47;;;11.45;;
31095;SDS011;17749;51.962;8.560;2024-02-04T20:13:02;13.82;;;8.23;;
31095;SDS011;17749;51.962;8.560;2024-02-04T20:15:30;14.27;;;9.18;;
31095;SDS011;17749;51.962;8.560;2024-02-04T20:17:57;17.40;;;7.53;;
31095;SDS011;17749;51.962;8.560;2024-02-04T20:20:25;14.82;;;8.05;;
31095;SDS011;17749;51.962;8.560;2024-02-04T20:22:53;14.10;;;7.53;;
31095;SDS011;17749;51.962;8.560;2024-02-04T20:25:24;13.65;;;8.05;;
31095;SDS011;17749;51.962;8.560;2024-02-04T20:27:55;10.88;;;6.13;;
31095;SDS011;17749;51.962;8.560;2024-02-04T20:30:23;13.55;;;6.60;;
31095;SDS011;17749;51.962;8.560;2024-02-04T20:32:56;12.77;;;6.57;;
31095;SDS011;17749;51.962;8.560;2024-02-04T20:35:24;12.95;;;5.93;;
31095;SDS011;17749;51.962;8.560;2024-02-04T20:37:53;11.02;;;6.40;;
31095;SDS011;17749;51.962;8.560;2024-02-04T20:40:24;11.75;;;5.85;;
31095;SDS011;17749;51.962;8.560;2024-02-04T20:42:51;10.15;;;5.97;;
31095;SDS011;17749;51.962;8.560;2024-02-04T20:45:19;10.30;;;5.20;;
31095;SDS011;17749;51.962;8.560;2024-02-04T20:47:47;9.02;;;5.70;;
31095;SDS011;17749;51.962;8.560;2024-02-04T20:50:15;10.18;;;6.13;;
31095;SDS011;17749;51.962;8.560;2024-02-04T20:52:43;10.10;;;5.43;;
31095;SDS011;17749;51.962;8.560;2024-02-04T20:55:10;10.85;;;6.13;;
31095;SDS011;17749;51.962;8.560;2024-02-04T20:57:37;12.52;;;6.43;;
31095;SDS011;17749;51.962;8.560;2024-02-04T21:00:06;9.93;;;6.15;;
31095;SDS011;17749;51.962;8.560;2024-02-04T21:02:34;11.73;;;6.77;;